createdAt,value
2023-05-03T00:00:03.239Z,941.64
2023-05-03T00:05:02.923Z,941.78
2023-05-03T00:10:03.261Z,941.88
2023-05-03T00:15:03.081Z,941.96
2023-05-03T00:20:03.343Z,941.98
2023-05-03T00:25:02.975Z,942.02
2023-05-03T00:30:03.325Z,942.06
2023-05-03T00:35:03.099Z,942.15
2023-05-03T00:40:03.184Z,942.15
2023-05-03T00:45:02.975Z,942.13
2023-05-03T00:50:03.235Z,942.27
2023-05-03T00:55:03.015Z,942.25
2023-05-03T01:00:03.783Z,942.15
2023-05-03T01:05:03.424Z,942.15
2023-05-03T01:10:03.298Z,942.17
2023-05-03T01:15:02.995Z,942.25
2023-05-03T01:20:03.288Z,942.21
2023-05-03T01:25:02.858Z,942.27
2023-05-03T01:30:03.266Z,942.27
2023-05-03T01:35:02.932Z,942.37
2023-05-03T01:40:03.190Z,942.35
2023-05-03T01:45:03.013Z,942.19
2023-05-03T01:50:03.327Z,942.25
2023-05-03T01:55:03.031Z,942.39
2023-05-03T02:00:03.268Z,942.49
2023-05-03T02:05:02.973Z,942.63
2023-05-03T02:10:03.172Z,942.61
2023-05-03T02:15:02.882Z,942.53
2023-05-03T02:20:03.294Z,942.55
2023-05-03T02:25:02.963Z,942.63
2023-05-03T02:30:03.344Z,942.74
2023-05-03T02:35:03.078Z,942.76
2023-05-03T02:40:03.256Z,942.74
2023-05-03T02:45:02.968Z,942.70
2023-05-03T02:50:03.213Z,942.65
2023-05-03T02:55:02.865Z,942.72
2023-05-03T03:00:03.261Z,942.78
2023-05-03T03:05:02.892Z,942.76
2023-05-03T03:10:03.185Z,942.74
2023-05-03T03:15:03.983Z,942.80
2023-05-03T03:20:03.237Z,942.78
2023-05-03T03:25:02.953Z,942.84
2023-05-03T03:30:03.241Z,942.88
2023-05-03T03:35:02.959Z,942.88
2023-05-03T03:40:03.234Z,942.84
2023-05-03T03:45:02.981Z,942.88
2023-05-03T03:50:03.222Z,942.72
2023-05-03T03:55:02.963Z,942.66
2023-05-03T04:00:03.319Z,942.68
2023-05-03T04:05:02.976Z,942.66
2023-05-03T04:10:03.802Z,942.63
2023-05-03T04:15:02.866Z,942.49
2023-05-03T04:20:03.359Z,942.41
2023-05-03T04:25:02.876Z,942.47
2023-05-03T04:30:03.209Z,942.49
2023-05-03T04:35:02.951Z,942.47
2023-05-03T04:40:03.320Z,942.43
2023-05-03T04:45:02.882Z,942.29
2023-05-03T04:50:03.159Z,942.23
2023-05-03T04:55:02.872Z,942.21
2023-05-03T05:00:03.218Z,942.15
2023-05-03T05:05:03.015Z,942.06
2023-05-03T05:10:03.187Z,942.06
2023-05-03T05:15:02.883Z,942.08
2023-05-03T05:20:03.308Z,942.06
2023-05-03T05:25:02.880Z,942.02
2023-05-03T05:30:03.279Z,941.96
2023-05-03T05:35:02.981Z,941.90
2023-05-03T05:40:03.202Z,941.90
2023-05-03T05:45:03.001Z,941.94
2023-05-03T05:50:05.850Z,941.90
2023-05-03T05:55:02.930Z,941.84
2023-05-03T06:00:03.231Z,941.82
2023-05-03T06:05:03.431Z,941.80
2023-05-03T06:10:03.145Z,941.70
2023-05-03T06:15:04.792Z,941.66
2023-05-03T06:20:06.454Z,941.57
2023-05-03T06:25:03.248Z,941.61
2023-05-03T06:30:05.108Z,941.64
2023-05-03T06:35:03.401Z,941.66
2023-05-03T06:40:04.733Z,941.68
2023-05-03T06:45:03.507Z,941.70
2023-05-03T06:50:04.801Z,941.68
2023-05-03T06:55:03.320Z,941.61
2023-05-03T07:00:04.428Z,941.57
2023-05-03T07:05:03.219Z,941.59
2023-05-03T07:10:04.726Z,941.63
2023-05-03T07:15:03.371Z,941.66
2023-05-03T07:20:04.473Z,941.74
2023-05-03T07:25:03.243Z,941.74
2023-05-03T07:30:04.493Z,941.72
2023-05-03T07:35:03.306Z,941.70
2023-05-03T07:40:04.591Z,941.66
2023-05-03T07:45:03.363Z,941.66
2023-05-03T07:50:04.316Z,941.66
2023-05-03T07:55:03.263Z,941.57
2023-05-03T08:00:04.485Z,941.55
2023-05-03T08:05:03.445Z,941.53
2023-05-03T08:10:04.476Z,941.41
2023-05-03T08:15:03.370Z,941.33
2023-05-03T08:20:04.824Z,941.39
2023-05-03T08:25:03.194Z,941.45
2023-05-03T08:30:04.548Z,941.57
2023-05-03T08:35:03.324Z,941.45
2023-05-03T08:40:04.484Z,941.39
2023-05-03T08:45:03.415Z,941.41
2023-05-03T08:50:04.355Z,941.45
2023-05-03T08:55:03.251Z,941.51
2023-05-03T09:00:04.543Z,941.59
2023-05-03T09:05:03.515Z,941.63
2023-05-03T09:10:04.479Z,941.66
2023-05-03T09:15:03.355Z,941.74
2023-05-03T09:20:04.466Z,941.80
2023-05-03T09:25:03.311Z,941.80
2023-05-03T09:30:04.456Z,941.86
2023-05-03T09:35:03.395Z,941.88
2023-05-03T09:40:04.407Z,941.90
2023-05-03T09:45:03.564Z,941.90
2023-05-03T09:50:04.284Z,941.96
2023-05-03T09:55:03.339Z,942.02
2023-05-03T10:00:04.214Z,942.08
2023-05-03T10:05:03.487Z,942.10
2023-05-03T10:10:04.307Z,942.15
2023-05-03T10:15:04.526Z,942.21
2023-05-03T10:20:05.227Z,942.21
2023-05-03T10:25:03.365Z,942.27
2023-05-03T10:30:04.414Z,942.37
2023-05-03T10:35:03.452Z,942.47
2023-05-03T10:40:04.236Z,942.53
2023-05-03T10:45:03.648Z,942.55
2023-05-03T10:50:04.436Z,942.61
2023-05-03T10:55:03.562Z,942.65
2023-05-03T11:00:04.175Z,942.65
2023-05-03T11:05:03.479Z,942.72
2023-05-03T11:10:04.721Z,942.84
2023-05-03T11:15:03.640Z,942.92
2023-05-03T11:20:04.113Z,943.02
2023-05-03T11:25:03.486Z,942.98
2023-05-03T11:30:04.192Z,942.98
2023-05-03T11:35:03.561Z,943.02
2023-05-03T11:40:04.208Z,943.12
2023-05-03T11:45:03.948Z,943.21
2023-05-03T11:50:04.125Z,943.29
2023-05-03T11:55:03.627Z,943.35
2023-05-03T12:00:04.258Z,943.37
2023-05-03T12:05:03.739Z,943.35
2023-05-03T12:15:04.443Z,943.47
2023-05-03T12:25:04.275Z,943.45
2023-05-03T12:30:04.512Z,943.47
2023-05-03T12:35:03.439Z,943.41
2023-05-03T12:45:04.857Z,943.51
2023-05-03T12:50:06.156Z,943.47
2023-05-03T12:55:03.959Z,943.51
2023-05-03T13:00:04.641Z,943.61
2023-05-03T13:05:07.846Z,943.61
2023-05-03T13:15:03.942Z,943.59
2023-05-03T13:20:04.506Z,943.65
2023-05-03T13:25:03.697Z,943.68
2023-05-03T13:30:04.086Z,943.63
2023-05-03T13:35:03.459Z,943.59
2023-05-03T13:40:04.655Z,943.61
2023-05-03T13:45:03.352Z,943.49
2023-05-03T13:50:04.516Z,943.41
2023-05-03T13:55:03.421Z,943.39
2023-05-03T14:00:09.337Z,943.59
2023-05-03T14:05:03.421Z,943.72
2023-05-03T14:10:04.475Z,943.70
2023-05-03T14:15:03.357Z,943.61
2023-05-03T14:20:04.451Z,943.59
2023-05-03T14:25:03.215Z,943.59
2023-05-03T14:30:04.384Z,943.49
2023-05-03T14:35:03.422Z,943.47
2023-05-03T14:40:05.501Z,943.33
2023-05-03T14:45:03.489Z,943.49
2023-05-03T14:50:04.328Z,943.51
2023-05-03T14:55:03.301Z,943.43
2023-05-03T15:00:04.482Z,943.37
2023-05-03T15:05:03.326Z,943.45
2023-05-03T15:10:04.632Z,943.27
2023-05-03T15:15:03.370Z,943.37
2023-05-03T15:20:04.548Z,943.29
2023-05-03T15:25:03.241Z,942.96
2023-05-03T15:30:04.421Z,943.21
2023-05-03T15:35:04.433Z,943.35
2023-05-03T15:40:04.508Z,943.27
2023-05-03T15:45:03.360Z,943.29
2023-05-03T15:50:09.468Z,943.06
2023-05-03T15:55:04.529Z,942.90
2023-05-03T16:00:04.339Z,942.82
2023-05-03T16:05:03.318Z,942.78
2023-05-03T16:10:04.557Z,942.65
2023-05-03T16:15:03.453Z,942.51
2023-05-03T16:20:04.648Z,942.45
2023-05-03T16:25:03.215Z,942.37
2023-05-03T16:30:04.495Z,942.37
2023-05-03T16:35:03.255Z,942.19
2023-05-03T16:40:04.519Z,942.13
2023-05-03T16:45:03.367Z,942.11
2023-05-03T16:50:04.578Z,942.19
2023-05-03T16:55:03.189Z,942.10
2023-05-03T17:00:05.061Z,942.00
2023-05-03T17:05:03.213Z,941.94
2023-05-03T17:10:04.461Z,941.84
2023-05-03T17:15:03.272Z,941.68
2023-05-03T17:20:04.586Z,941.82
2023-05-03T17:25:03.392Z,941.76
2023-05-03T17:30:06.382Z,941.57
2023-05-03T17:35:03.316Z,941.59
2023-05-03T17:40:04.590Z,941.57
2023-05-03T17:45:03.333Z,941.57
2023-05-03T17:50:04.744Z,941.57
2023-05-03T17:55:03.426Z,941.45
2023-05-03T18:00:05.633Z,941.29
2023-05-03T18:05:03.291Z,941.11
2023-05-03T18:10:04.524Z,941.06
2023-05-03T18:15:03.395Z,941.29
2023-05-03T18:20:09.370Z,941.47
2023-05-03T18:25:03.180Z,941.51
2023-05-03T18:30:05.605Z,941.57
2023-05-03T18:35:03.416Z,941.59
2023-05-03T18:40:04.479Z,941.55
2023-05-03T18:45:03.260Z,941.61
2023-05-03T18:50:04.419Z,941.57
2023-05-03T18:55:03.456Z,941.57
2023-05-03T19:00:04.292Z,941.59
2023-05-03T19:05:03.232Z,941.63
2023-05-03T19:10:04.532Z,941.63
2023-05-03T19:15:03.345Z,941.68
2023-05-03T19:20:04.585Z,941.82
2023-05-03T19:25:04.901Z,941.76
2023-05-03T19:30:04.367Z,941.84
2023-05-03T19:35:03.266Z,941.92
2023-05-03T19:40:04.584Z,941.94
2023-05-03T19:45:04.379Z,942.00
2023-05-03T19:50:04.757Z,942.00
2023-05-03T19:55:03.353Z,942.00
2023-05-03T20:00:04.513Z,942.00
2023-05-03T20:05:03.178Z,942.02
2023-05-03T20:10:04.478Z,941.98
2023-05-03T20:15:03.282Z,942.00
2023-05-03T20:20:05.608Z,942.06
2023-05-03T20:25:03.327Z,942.13
2023-05-03T20:30:04.365Z,942.15
2023-05-03T20:35:03.221Z,942.23
2023-05-03T20:40:06.291Z,942.27
2023-05-03T20:45:03.369Z,942.27
2023-05-03T20:50:04.629Z,942.10
2023-05-03T20:55:03.424Z,942.11
2023-05-03T21:00:04.425Z,942.10
2023-05-03T21:05:03.188Z,942.10
2023-05-03T21:10:04.396Z,942.08
2023-05-03T21:15:03.246Z,942.06
2023-05-03T21:20:04.408Z,942.06
2023-05-03T21:25:03.409Z,942.17
2023-05-03T21:30:04.759Z,942.23
2023-05-03T21:35:03.267Z,942.23
2023-05-03T21:40:04.261Z,942.29
2023-05-03T21:45:03.297Z,942.29
2023-05-03T21:50:04.567Z,942.27
2023-05-03T21:55:03.331Z,942.23
2023-05-03T22:00:04.637Z,942.27
2023-05-03T22:05:03.274Z,942.27
2023-05-03T22:10:04.615Z,942.25
2023-05-03T22:15:03.302Z,942.33
2023-05-03T22:20:04.603Z,942.35
2023-05-03T22:25:03.628Z,942.35
2023-05-03T22:30:04.568Z,942.35
2023-05-03T22:35:04.334Z,942.35
2023-05-03T22:40:04.785Z,942.37
2023-05-03T22:45:03.288Z,942.41
2023-05-03T22:50:04.643Z,942.39
2023-05-03T22:55:03.410Z,942.41
2023-05-03T23:00:05.667Z,942.39
2023-05-03T23:05:03.318Z,942.49
2023-05-03T23:10:04.508Z,942.55
2023-05-03T23:15:03.388Z,942.61
2023-05-03T23:20:09.554Z,942.68
2023-05-03T23:25:03.580Z,942.66
2023-05-03T23:30:04.663Z,942.76
2023-05-03T23:35:03.264Z,942.88
2023-05-03T23:40:04.407Z,942.92
2023-05-03T23:45:03.272Z,942.96
2023-05-03T23:50:04.707Z,942.98
2023-05-03T23:55:03.330Z,942.96
